Time;durP1;ratioP1;P1;durP2;ratioP2;P2;SDS_P1;SDS_P2;PMS_P1;PMS_P2;Temp;Humidity;BMP_temperature;BMP_pressure;BME280_temperature;BME280_humidity;BME280_pressure;Samples;Min_cycle;Max_cycle;Signal;HPM_P1;HPM_P2
2022/03/03 00:02:17;;;;;;;12.23;7.30;;;4.80;99.90;;;;;;7391133;19;20138;-82
2022/03/03 00:04:43;;;;;;;12.37;7.23;;;5.00;99.90;;;;;;7389103;19;20585;-81
2022/03/03 00:07:09;;;;;;;14.20;7.27;;;4.80;99.90;;;;;;7389369;19;20130;-81
2022/03/03 00:09:34;;;;;;;12.50;7.90;;;5.00;99.90;;;;;;7390494;19;20144;-81
2022/03/03 00:12:00;;;;;;;11.33;7.00;;;5.00;99.90;;;;;;7388973;19;20146;-81
2022/03/03 00:14:26;;;;;;;15.80;7.70;;;5.10;99.90;;;;;;7389001;19;20155;-77
2022/03/03 00:16:52;;;;;;;12.63;7.63;;;5.10;99.90;;;;;;7387259;19;20514;-81
2022/03/03 00:19:18;;;;;;;10.10;6.77;;;5.00;99.90;;;;;;7386409;19;20170;-81
2022/03/03 00:21:44;;;;;;;11.43;6.73;;;5.00;99.90;;;;;;7393877;19;20774;-78
2022/03/03 00:24:09;;;;;;;12.20;8.50;;;5.00;99.90;;;;;;7389823;19;20149;-80
2022/03/03 00:26:35;;;;;;;11.57;7.33;;;5.10;99.90;;;;;;7387850;19;20141;-82
2022/03/03 00:29:01;;;;;;;12.80;7.37;;;5.10;99.90;;;;;;7388508;19;20564;-82
2022/03/03 00:31:28;;;;;;;14.10;7.67;;;5.10;99.90;;;;;;7386168;19;20135;-77
2022/03/03 00:33:54;;;;;;;14.47;7.93;;;5.20;99.90;;;;;;7389155;19;20135;-79
2022/03/03 00:36:19;;;;;;;12.30;7.37;;;4.90;99.90;;;;;;7387344;19;20137;-78
2022/03/03 00:38:45;;;;;;;14.33;7.57;;;5.00;99.90;;;;;;7388618;19;20763;-79
2022/03/03 00:41:11;;;;;;;10.80;6.97;;;5.00;99.90;;;;;;7388329;19;21122;-82
2022/03/03 00:43:37;;;;;;;11.03;7.40;;;4.80;99.90;;;;;;7388163;19;20130;-79
2022/03/03 00:46:02;;;;;;;13.37;7.57;;;4.90;99.90;;;;;;7387151;19;20183;-77
2022/03/03 00:48:28;;;;;;;15.07;7.67;;;4.40;99.90;;;;;;7387152;19;20154;-81
2022/03/03 00:50:54;;;;;;;10.63;7.23;;;4.60;99.90;;;;;;7387927;19;20127;-79
2022/03/03 00:53:20;;;;;;;9.70;6.60;;;4.80;99.90;;;;;;7389283;19;20138;-81
2022/03/03 00:55:46;;;;;;;14.60;6.80;;;4.80;99.90;;;;;;7390546;19;20143;-82
2022/03/03 00:58:12;;;;;;;12.93;7.90;;;4.80;99.90;;;;;;7384630;19;20154;-80
2022/03/03 01:00:38;;;;;;;14.10;8.17;;;4.30;99.90;;;;;;7386691;19;20534;-81
2022/03/03 01:03:03;;;;;;;12.53;7.17;;;4.40;99.90;;;;;;7387327;19;20142;-83
2022/03/03 01:05:29;;;;;;;13.27;7.60;;;4.60;99.90;;;;;;7387226;19;20126;-83
2022/03/03 01:07:55;;;;;;;12.67;7.27;;;4.50;99.90;;;;;;7387190;19;20594;-79
2022/03/03 01:10:21;;;;;;;10.40;7.40;;;4.30;99.90;;;;;;7390393;19;20127;-81
2022/03/03 01:12:46;;;;;;;12.40;7.50;;;4.20;99.90;;;;;;7387303;19;20134;-82
2022/03/03 01:15:12;;;;;;;14.20;8.63;;;4.30;99.90;;;;;;7388964;19;20142;-83
2022/03/03 01:17:39;;;;;;;13.50;7.80;;;4.70;99.90;;;;;;7385966;19;20758;-79
2022/03/03 01:20:07;;;;;;;11.87;7.57;;;4.80;99.90;;;;;;7388137;19;20773;-78
2022/03/03 01:22:33;;;;;;;13.53;7.70;;;4.90;99.90;;;;;;7387121;19;20131;-78
2022/03/03 01:24:59;;;;;;;11.33;7.73;;;5.10;99.90;;;;;;7387661;19;20127;-82
2022/03/03 01:27:25;;;;;;;12.07;7.70;;;5.10;99.90;;;;;;7389828;19;20505;-77
2022/03/03 01:29:50;;;;;;;12.80;8.37;;;5.00;99.90;;;;;;7387213;19;20135;-79
2022/03/03 01:32:16;;;;;;;12.50;7.90;;;5.00;99.90;;;;;;7389217;19;20452;-81
2022/03/03 01:34:42;;;;;;;11.17;7.50;;;4.80;99.90;;;;;;7387403;19;20591;-81
2022/03/03 01:37:08;;;;;;;12.80;7.30;;;4.90;99.90;;;;;;7387020;19;20126;-78
2022/03/03 01:39:34;;;;;;;12.83;7.07;;;4.70;99.90;;;;;;7388902;19;20573;-80
2022/03/03 01:42:00;;;;;;;12.80;7.53;;;4.70;99.90;;;;;;7389325;19;20126;-81
2022/03/03 01:44:26;;;;;;;12.33;7.70;;;4.60;99.90;;;;;;7393881;19;20138;-78
2022/03/03 01:46:54;;;;;;;13.97;7.37;;;4.60;99.90;;;;;;7392745;19;20139;-79
2022/03/03 01:49:20;;;;;;;12.13;7.47;;;4.50;99.90;;;;;;7392109;19;20130;-77
2022/03/03 01:51:46;;;;;;;12.13;7.43;;;4.50;99.90;;;;;;7392450;19;20155;-81
2022/03/03 01:54:13;;;;;;;13.60;7.67;;;4.70;99.90;;;;;;7393437;19;20154;-79
2022/03/03 01:56:43;;;;;;;12.67;6.80;;;4.80;99.90;;;;;;7395519;19;20155;-77
2022/03/03 01:59:09;;;;;;;12.80;8.03;;;4.70;99.90;;;;;;7394106;19;20218;-78
2022/03/03 02:01:39;;;;;;;11.00;7.10;;;4.70;99.90;;;;;;7396485;19;20646;-83
2022/03/03 02:04:07;;;;;;;12.87;7.17;;;4.70;99.90;;;;;;7395992;19;20210;-81
2022/03/03 02:06:34;;;;;;;12.90;8.53;;;4.70;99.90;;;;;;7395719;19;20586;-79
2022/03/03 02:09:00;;;;;;;12.30;7.83;;;4.60;99.90;;;;;;7393096;19;20149;-78
2022/03/03 02:11:26;;;;;;;14.87;7.40;;;4.40;99.90;;;;;;7397039;19;20582;-77
2022/03/03 02:13:52;;;;;;;12.03;7.93;;;4.10;99.90;;;;;;7397424;19;20142;-82
2022/03/03 02:16:18;;;;;;;12.80;8.63;;;4.30;99.90;;;;;;7393594;19;20606;-81
2022/03/03 02:18:44;;;;;;;13.67;7.43;;;4.50;99.90;;;;;;7396031;19;20589;-79
2022/03/03 02:21:15;;;;;;;11.93;7.63;;;4.70;99.90;;;;;;7395914;19;20142;-82
2022/03/03 02:23:41;;;;;;;15.20;7.77;;;4.70;99.90;;;;;;7395159;19;20131;-81
2022/03/03 02:26:11;;;;;;;13.57;8.67;;;4.70;99.90;;;;;;7396443;19;21268;-77
2022/03/03 02:28:39;;;;;;;13.37;8.33;;;4.60;99.90;;;;;;7394228;19;20131;-78
2022/03/03 02:31:05;;;;;;;22.20;9.00;;;4.50;99.90;;;;;;7392703;19;20131;-82
2022/03/03 02:33:30;;;;;;;13.73;8.30;;;4.50;99.90;;;;;;7392638;19;20505;-78
2022/03/03 02:36:13;;;;;;;15.67;8.83;;;4.50;99.90;;;;;;7392078;19;20520;-79
2022/03/03 02:38:38;;;;;;;15.03;8.37;;;4.30;99.90;;;;;;7393793;19;20150;-77
2022/03/03 02:41:04;;;;;;;12.97;8.70;;;4.10;99.90;;;;;;7394644;19;20586;-81
2022/03/03 02:43:30;;;;;;;12.70;8.20;;;4.10;99.90;;;;;;7397623;19;20146;-78
2022/03/03 02:45:55;;;;;;;16.13;8.93;;;4.20;99.90;;;;;;7395866;19;20146;-78
2022/03/03 02:48:21;;;;;;;13.87;7.83;;;4.10;99.90;;;;;;7392845;19;20667;-78
2022/03/03 02:50:47;;;;;;;13.70;8.57;;;4.00;99.90;;;;;;7396167;19;20171;-82
2022/03/03 02:53:13;;;;;;;13.70;8.27;;;3.70;99.90;;;;;;7392211;19;20139;-78
2022/03/03 02:55:38;;;;;;;13.87;9.10;;;3.90;99.90;;;;;;7390329;19;20142;-82
2022/03/03 02:58:05;;;;;;;13.47;8.53;;;4.10;99.90;;;;;;7392012;19;20206;-80
2022/03/03 03:00:42;;;;;;;15.07;8.63;;;4.20;99.90;;;;;;7396233;19;20182;-80
2022/03/03 03:03:09;;;;;;;14.63;8.80;;;4.20;99.90;;;;;;7392256;19;20142;-77
2022/03/03 03:05:35;;;;;;;12.93;8.57;;;4.20;99.90;;;;;;7392016;19;20146;-77
2022/03/03 03:08:02;;;;;;;15.07;8.47;;;3.90;99.90;;;;;;7391196;19;20190;-82
2022/03/03 03:10:28;;;;;;;14.67;9.00;;;3.30;99.90;;;;;;7391383;19;20152;-76
2022/03/03 03:12:54;;;;;;;18.77;8.63;;;3.30;99.90;;;;;;7395282;19;20166;-77
2022/03/03 03:15:20;;;;;;;14.63;8.60;;;3.00;99.90;;;;;;7393786;19;20135;-77
2022/03/03 03:17:46;;;;;;;14.20;8.47;;;3.30;99.90;;;;;;7391138;19;20222;-77
2022/03/03 03:20:12;;;;;;;18.23;8.57;;;3.20;99.90;;;;;;7391839;19;20168;-81
2022/03/03 03:22:38;;;;;;;14.43;7.50;;;3.60;99.90;;;;;;7390884;19;20142;-82
2022/03/03 03:25:09;;;;;;;13.20;8.37;;;3.90;99.90;;;;;;7392982;19;20475;-82
2022/03/03 03:27:37;;;;;;;13.60;8.00;;;4.00;99.90;;;;;;7389830;19;20218;-78
2022/03/03 03:30:07;;;;;;;16.13;9.03;;;4.10;99.90;;;;;;7392763;19;20133;-81
2022/03/03 03:32:34;;;;;;;14.60;9.03;;;3.90;99.90;;;;;;7390712;19;20138;-78
2022/03/03 03:34:59;;;;;;;12.53;8.27;;;3.80;99.90;;;;;;7392261;19;20295;-81
2022/03/03 03:37:25;;;;;;;14.07;8.03;;;3.60;99.90;;;;;;7390340;19;20138;-79
2022/03/03 03:39:51;;;;;;;16.87;8.87;;;3.50;99.90;;;;;;7390126;19;20127;-81
2022/03/03 03:42:17;;;;;;;11.93;7.40;;;3.20;99.90;;;;;;7392117;19;20125;-77
2022/03/03 03:44:43;;;;;;;13.73;7.80;;;3.20;99.90;;;;;;7392171;19;20163;-77
2022/03/03 03:47:10;;;;;;;15.43;7.93;;;3.20;99.90;;;;;;7390040;19;20151;-76
2022/03/03 03:49:36;;;;;;;14.57;8.30;;;3.10;99.90;;;;;;7391394;19;20155;-76
2022/03/03 03:52:03;;;;;;;14.67;7.77;;;3.40;99.90;;;;;;7392086;19;20134;-77
2022/03/03 03:54:29;;;;;;;13.73;7.80;;;3.60;99.90;;;;;;7390872;19;20217;-80
2022/03/03 03:56:55;;;;;;;12.83;7.63;;;3.80;99.90;;;;;;7390880;19;20134;-77
2022/03/03 03:59:21;;;;;;;15.20;8.43;;;3.80;99.90;;;;;;7389552;19;20151;-77
2022/03/03 04:01:47;;;;;;;13.13;7.67;;;3.90;99.90;;;;;;7389666;19;20159;-81
2022/03/03 04:04:13;;;;;;;15.47;8.93;;;3.80;99.90;;;;;;7389266;19;20114;-80
2022/03/03 04:06:39;;;;;;;12.03;7.70;;;3.90;99.90;;;;;;7388604;19;20137;-82
2022/03/03 04:09:06;;;;;;;11.93;7.93;;;3.80;99.90;;;;;;7392103;19;20138;-82
2022/03/03 04:11:32;;;;;;;12.87;7.67;;;3.80;99.90;;;;;;7390336;19;20166;-77
2022/03/03 04:13:58;;;;;;;14.60;8.37;;;3.60;99.90;;;;;;7390431;19;20554;-77
2022/03/03 04:16:25;;;;;;;13.70;7.43;;;3.50;99.90;;;;;;7389595;19;20134;-80
2022/03/03 04:18:51;;;;;;;13.23;7.97;;;3.40;99.90;;;;;;7389631;19;20153;-77
2022/03/03 04:21:17;;;;;;;13.50;8.60;;;3.40;99.90;;;;;;7390120;19;20118;-77
2022/03/03 04:23:43;;;;;;;13.80;8.27;;;3.30;99.90;;;;;;7390685;19;20142;-80
2022/03/03 04:26:09;;;;;;;12.80;8.90;;;3.40;99.90;;;;;;7387313;19;20131;-76
2022/03/03 04:28:35;;;;;;;13.13;8.00;;;3.50;99.90;;;;;;7389748;19;20127;-77
2022/03/03 04:31:02;;;;;;;18.83;8.50;;;3.70;99.90;;;;;;7389925;19;20469;-81
2022/03/03 04:33:28;;;;;;;14.63;8.03;;;3.80;99.90;;;;;;7390661;19;20127;-76
2022/03/03 04:35:55;;;;;;;14.53;7.87;;;3.80;99.90;;;;;;7389585;19;20127;-76
2022/03/03 04:38:21;;;;;;;13.63;8.70;;;3.60;99.90;;;;;;7388133;19;20131;-77
2022/03/03 04:40:47;;;;;;;14.13;8.70;;;3.50;99.90;;;;;;7387333;19;20134;-76
2022/03/03 04:43:12;;;;;;;13.63;8.67;;;3.50;99.90;;;;;;7388327;19;20138;-76
2022/03/03 04:45:38;;;;;;;21.23;8.90;;;3.60;99.90;;;;;;7388832;19;20154;-82
2022/03/03 04:48:04;;;;;;;14.23;8.33;;;3.60;99.90;;;;;;7387888;19;20123;-82
2022/03/03 04:50:30;;;;;;;15.27;8.53;;;3.50;99.90;;;;;;7395172;19;20582;-77
2022/03/03 04:52:56;;;;;;;11.93;8.10;;;3.40;99.90;;;;;;7390984;19;20213;-78
2022/03/03 04:55:22;;;;;;;12.30;7.93;;;3.30;99.90;;;;;;7392540;19;20147;-79
2022/03/03 04:57:48;;;;;;;15.13;8.80;;;3.50;99.90;;;;;;7388154;19;20140;-76
2022/03/03 05:00:14;;;;;;;10.30;7.07;;;3.80;99.90;;;;;;7393021;19;20135;-77
2022/03/03 05:02:40;;;;;;;14.90;8.87;;;3.80;99.90;;;;;;7388888;19;20134;-82
2022/03/03 05:05:07;;;;;;;14.47;8.30;;;3.80;99.90;;;;;;7387986;19;20170;-78
2022/03/03 05:07:33;;;;;;;15.57;8.37;;;3.70;99.90;;;;;;7388849;19;21060;-77
2022/03/03 05:10:00;;;;;;;12.23;7.67;;;3.70;99.90;;;;;;7394079;19;20155;-82
2022/03/03 05:12:27;;;;;;;15.10;7.90;;;3.40;99.90;;;;;;7391495;19;20494;-82
2022/03/03 05:14:53;;;;;;;14.93;8.33;;;3.70;99.90;;;;;;7389472;19;20126;-77
2022/03/03 05:17:19;;;;;;;17.10;8.03;;;3.40;99.90;;;;;;7388364;19;20130;-83
2022/03/03 05:19:45;;;;;;;15.67;8.40;;;3.50;99.90;;;;;;7394934;19;20142;-76
2022/03/03 05:22:11;;;;;;;14.63;8.50;;;3.60;99.90;;;;;;7390292;19;20188;-77
2022/03/03 05:24:38;;;;;;;15.63;8.87;;;3.60;99.90;;;;;;7397417;19;20138;-82
2022/03/03 05:27:04;;;;;;;16.37;9.40;;;3.60;99.90;;;;;;7391874;19;20151;-82
2022/03/03 05:29:30;;;;;;;16.93;8.93;;;3.60;99.90;;;;;;7396738;19;20615;-77
2022/03/03 05:31:59;;;;;;;13.00;8.03;;;3.60;99.90;;;;;;7395426;19;20151;-77
2022/03/03 05:34:28;;;;;;;13.77;8.80;;;3.60;99.90;;;;;;7394954;19;20281;-77
2022/03/03 05:36:54;;;;;;;14.97;8.83;;;3.60;99.90;;;;;;7395314;19;20626;-82
2022/03/03 05:39:23;;;;;;;15.07;8.77;;;3.60;99.90;;;;;;7395647;19;20131;-75
2022/03/03 05:41:49;;;;;;;15.23;9.03;;;3.50;99.90;;;;;;7394546;19;20602;-83
2022/03/03 05:44:16;;;;;;;17.53;8.63;;;3.40;99.90;;;;;;7394320;19;20131;-83
2022/03/03 05:46:42;;;;;;;14.30;8.57;;;3.50;99.90;;;;;;7394369;19;20628;-76
2022/03/03 05:49:09;;;;;;;14.57;9.10;;;3.50;99.90;;;;;;7395451;19;20139;-78
2022/03/03 05:51:35;;;;;;;16.40;9.37;;;3.60;99.90;;;;;;7395737;19;20151;-82
2022/03/03 05:54:01;;;;;;;18.73;9.63;;;3.80;99.90;;;;;;7396179;19;20179;-82
2022/03/03 05:56:31;;;;;;;14.87;9.33;;;3.90;99.90;;;;;;7392740;19;20131;-76
2022/03/03 05:59:01;;;;;;;18.33;8.43;;;3.80;99.90;;;;;;7393697;19;20142;-78
2022/03/03 06:01:28;;;;;;;18.87;9.50;;;3.70;99.90;;;;;;7394043;19;20149;-77
2022/03/03 06:03:57;;;;;;;13.50;9.20;;;3.70;99.90;;;;;;7393681;19;20141;-76
2022/03/03 06:06:28;;;;;;;15.90;9.00;;;3.60;99.90;;;;;;7392572;19;20134;-80
2022/03/03 06:09:00;;;;;;;15.50;9.20;;;3.50;99.90;;;;;;7395452;19;20135;-77
2022/03/03 06:11:27;;;;;;;15.27;8.83;;;3.40;99.90;;;;;;7394984;19;20164;-76
2022/03/03 06:14:04;;;;;;;13.57;9.13;;;3.50;99.90;;;;;;7393615;19;20155;-82
2022/03/03 06:16:30;;;;;;;14.13;8.50;;;3.60;99.90;;;;;;7393870;19;20149;-81
2022/03/03 06:18:58;;;;;;;13.50;8.43;;;3.10;99.90;;;;;;7392924;19;20174;-82
2022/03/03 06:21:24;;;;;;;14.43;9.13;;;3.30;99.90;;;;;;7394892;19;20127;-77
2022/03/03 06:23:50;;;;;;;16.47;9.53;;;3.10;99.90;;;;;;7393180;19;20575;-77
2022/03/03 06:26:18;;;;;;;17.13;9.30;;;3.00;99.90;;;;;;7398947;19;20127;-83
2022/03/03 06:28:44;;;;;;;20.40;10.47;;;2.80;99.90;;;;;;7394237;19;20137;-77
2022/03/03 06:31:10;;;;;;;14.43;9.13;;;3.10;99.90;;;;;;7393345;19;20171;-77
2022/03/03 06:33:37;;;;;;;13.13;8.53;;;3.50;99.90;;;;;;7396007;19;20146;-79
2022/03/03 06:36:03;;;;;;;13.70;8.73;;;3.30;99.90;;;;;;7394945;19;20151;-84
2022/03/03 06:38:29;;;;;;;13.13;9.10;;;3.10;99.90;;;;;;7392572;19;20134;-80
2022/03/03 06:40:57;;;;;;;15.73;9.80;;;3.10;99.90;;;;;;7392073;19;20218;-76
2022/03/03 06:43:24;;;;;;;16.47;9.23;;;2.80;99.90;;;;;;7396114;19;20168;-79
2022/03/03 06:45:50;;;;;;;15.17;8.73;;;3.00;99.90;;;;;;7393595;19;20235;-76
2022/03/03 06:48:17;;;;;;;17.90;9.70;;;3.00;99.90;;;;;;7394557;19;20147;-81
2022/03/03 06:50:43;;;;;;;16.50;9.73;;;3.10;99.90;;;;;;7395266;19;20130;-76
2022/03/03 06:53:09;;;;;;;16.33;9.67;;;3.40;99.90;;;;;;7391810;19;20206;-82
2022/03/03 06:55:37;;;;;;;13.67;8.50;;;3.50;99.90;;;;;;7396454;19;20134;-79
2022/03/03 06:58:03;;;;;;;15.13;8.97;;;3.40;99.90;;;;;;7390849;19;20134;-76
2022/03/03 07:00:33;;;;;;;22.10;9.60;;;3.40;99.90;;;;;;7391799;19;20139;-77
2022/03/03 07:03:01;;;;;;;18.57;9.40;;;3.50;99.90;;;;;;7392704;19;20552;-82
2022/03/03 07:05:28;;;;;;;17.20;9.13;;;3.60;99.90;;;;;;7391441;19;20133;-82
2022/03/03 07:07:55;;;;;;;14.53;9.77;;;3.70;99.90;;;;;;7393509;19;20135;-76
2022/03/03 07:10:25;;;;;;;19.17;9.17;;;3.70;99.90;;;;;;7389341;19;20151;-83
2022/03/03 07:12:54;;;;;;;15.23;9.63;;;3.40;99.90;;;;;;7392881;19;20147;-79
2022/03/03 07:15:21;;;;;;;16.67;9.77;;;3.20;99.90;;;;;;7389737;19;20126;-76
2022/03/03 07:18:02;;;;;;;14.63;9.53;;;3.60;99.90;;;;;;7389337;19;20150;-77
2022/03/03 07:20:43;;;;;;;18.93;9.70;;;3.90;99.90;;;;;;7391472;19;20147;-81
2022/03/03 07:23:22;;;;;;;16.80;9.87;;;4.10;99.90;;;;;;7392353;19;20138;-76
2022/03/03 07:25:54;;;;;;;17.13;10.30;;;4.20;99.90;;;;;;7391691;19;20138;-77
2022/03/03 07:28:21;;;;;;;16.93;10.33;;;3.90;99.90;;;;;;7392209;19;20236;-81
2022/03/03 07:30:50;;;;;;;16.87;8.93;;;3.90;99.90;;;;;;7391675;19;20143;-82
2022/03/03 07:33:43;;;;;;;20.53;10.50;;;4.00;99.90;;;;;;7391580;19;20146;-77
2022/03/03 07:36:12;;;;;;;15.40;9.63;;;3.90;99.90;;;;;;7391427;19;20487;-77
2022/03/03 07:38:39;;;;;;;14.73;9.60;;;3.60;99.90;;;;;;7389731;19;20127;-76
2022/03/03 07:41:07;;;;;;;17.87;9.63;;;3.60;99.90;;;;;;7392871;19;20224;-77
2022/03/03 07:43:33;;;;;;;18.33;9.83;;;4.00;99.90;;;;;;7390010;19;20143;-77
2022/03/03 07:45:59;;;;;;;17.97;10.10;;;4.10;99.90;;;;;;7388733;19;20607;-76
2022/03/03 07:48:25;;;;;;;19.70;10.43;;;4.30;99.90;;;;;;7392315;19;20134;-83
2022/03/03 07:50:52;;;;;;;17.37;11.07;;;4.40;99.90;;;;;;7398879;19;20142;-81
2022/03/03 07:53:18;;;;;;;17.33;10.50;;;4.50;99.90;;;;;;7390230;19;20212;-77
2022/03/03 07:55:53;;;;;;;15.27;9.70;;;4.60;99.90;;;;;;7391150;19;20157;-79
2022/03/03 07:58:21;;;;;;;18.20;9.70;;;4.50;99.90;;;;;;7389807;19;20126;-81
2022/03/03 08:00:50;;;;;;;19.43;9.97;;;4.60;99.90;;;;;;7388412;19;20142;-81
2022/03/03 08:03:21;;;;;;;20.13;10.73;;;4.50;99.90;;;;;;7394742;19;20186;-76
2022/03/03 08:05:54;;;;;;;17.43;10.50;;;4.60;99.90;;;;;;7388544;19;20126;-77
2022/03/03 08:08:22;;;;;;;19.30;10.83;;;4.40;99.90;;;;;;7391081;19;20231;-84
2022/03/03 08:10:48;;;;;;;22.33;11.20;;;4.30;99.90;;;;;;7388510;19;20139;-76
2022/03/03 08:13:17;;;;;;;21.20;10.63;;;4.40;99.90;;;;;;7391544;19;20174;-80
2022/03/03 08:15:43;;;;;;;18.83;11.20;;;4.40;99.90;;;;;;7390702;19;20146;-76
2022/03/03 08:18:12;;;;;;;20.30;10.37;;;4.50;99.90;;;;;;7390368;19;20179;-76
2022/03/03 08:20:39;;;;;;;22.33;11.27;;;4.50;99.90;;;;;;7388254;19;20625;-77
2022/03/03 08:23:08;;;;;;;24.80;10.20;;;4.50;99.90;;;;;;7387613;19;20152;-77
2022/03/03 08:25:36;;;;;;;22.83;10.77;;;4.50;99.90;;;;;;7388873;19;20134;-77
2022/03/03 08:28:03;;;;;;;19.33;10.63;;;4.50;99.90;;;;;;7388230;19;20135;-83
2022/03/03 08:30:31;;;;;;;17.47;10.70;;;4.80;99.90;;;;;;7388177;19;20154;-82
2022/03/03 08:33:03;;;;;;;17.97;10.90;;;4.80;99.90;;;;;;7390490;19;20194;-83
2022/03/03 08:35:39;;;;;;;24.87;11.33;;;4.80;99.90;;;;;;7389601;19;20137;-75
2022/03/03 08:38:17;;;;;;;20.53;11.20;;;4.80;99.90;;;;;;7387365;19;20539;-81
2022/03/03 08:40:45;;;;;;;18.53;10.97;;;4.80;99.90;;;;;;7389280;19;20184;-78
2022/03/03 08:43:15;;;;;;;20.00;12.03;;;4.90;99.90;;;;;;7389968;19;20142;-76
2022/03/03 08:45:42;;;;;;;19.20;11.67;;;5.00;99.90;;;;;;7389601;19;20169;-82
2022/03/03 08:48:11;;;;;;;16.70;10.60;;;4.90;99.90;;;;;;7387457;19;20134;-77
2022/03/03 08:50:39;;;;;;;21.93;11.27;;;4.90;99.90;;;;;;7391327;19;20200;-83
2022/03/03 08:53:06;;;;;;;24.87;12.00;;;4.90;99.90;;;;;;7387950;19;20127;-81
2022/03/03 08:55:34;;;;;;;21.13;11.07;;;5.00;99.90;;;;;;7389663;19;20130;-76
2022/03/03 08:58:00;;;;;;;23.10;11.13;;;5.00;99.90;;;;;;7385460;19;20134;-77
2022/03/03 09:00:27;;;;;;;22.70;11.83;;;5.10;99.90;;;;;;7387897;19;20198;-77
2022/03/03 09:02:53;;;;;;;19.03;10.43;;;5.20;99.90;;;;;;7388177;19;20147;-82
2022/03/03 09:05:20;;;;;;;20.03;11.53;;;5.20;99.90;;;;;;7387935;19;20134;-82
2022/03/03 09:07:46;;;;;;;17.23;10.90;;;5.20;99.90;;;;;;7385939;19;20151;-81
2022/03/03 09:10:14;;;;;;;24.40;11.83;;;5.30;99.90;;;;;;7390051;19;20146;-77
2022/03/03 09:12:40;;;;;;;24.83;11.83;;;5.40;99.90;;;;;;7388945;19;20138;-82
2022/03/03 09:15:08;;;;;;;22.23;11.90;;;5.40;99.90;;;;;;7387067;19;20145;-76
2022/03/03 09:17:34;;;;;;;23.13;10.80;;;5.40;99.90;;;;;;7386746;19;20143;-76
2022/03/03 09:20:01;;;;;;;16.73;11.60;;;5.50;99.90;;;;;;7387721;19;20134;-78
2022/03/03 09:22:27;;;;;;;20.30;11.23;;;5.50;99.90;;;;;;7388697;19;20142;-76
2022/03/03 09:24:54;;;;;;;19.10;11.05;;;5.60;99.90;;;;;;7387348;19;20340;-82
2022/03/03 09:27:20;;;;;;;19.97;12.00;;;5.70;99.90;;;;;;7391458;19;20236;-82
2022/03/03 09:29:46;;;;;;;24.10;12.10;;;5.80;99.90;;;;;;7388812;19;20146;-76
2022/03/03 09:32:13;;;;;;;18.57;11.37;;;5.90;99.90;;;;;;7387445;19;20749;-81
2022/03/03 09:34:39;;;;;;;20.13;12.00;;;6.00;99.90;;;;;;7386261;19;20134;-82
2022/03/03 09:37:05;;;;;;;20.20;11.80;;;6.00;99.90;;;;;;7385566;19;20139;-81
2022/03/03 09:39:31;;;;;;;20.17;11.77;;;6.20;99.90;;;;;;7388547;19;20195;-82
2022/03/03 09:41:57;;;;;;;19.00;11.27;;;6.30;99.90;;;;;;7386371;19;20135;-77
2022/03/03 09:44:26;;;;;;;19.50;11.37;;;6.30;99.90;;;;;;7387486;19;20143;-81
2022/03/03 09:46:53;;;;;;;21.73;11.20;;;6.50;99.90;;;;;;7386011;19;20147;-80
2022/03/03 09:49:20;;;;;;;17.17;11.37;;;6.50;99.90;;;;;;7388815;19;20143;-77
2022/03/03 09:51:50;;;;;;;18.57;10.83;;;6.90;99.90;;;;;;7386288;19;20138;-77
2022/03/03 09:54:17;;;;;;;21.00;11.43;;;6.90;99.90;;;;;;7385617;19;20164;-76
2022/03/03 09:56:45;;;;;;;15.97;11.30;;;7.00;99.90;;;;;;7385515;19;20227;-76
2022/03/03 09:59:12;;;;;;;18.47;10.80;;;7.10;99.90;;;;;;7386430;19;20135;-83
2022/03/03 10:01:38;;;;;;;18.43;11.53;;;7.10;99.90;;;;;;7386447;19;20590;-83
2022/03/03 10:04:24;;;;;;;18.17;11.07;;;7.20;99.90;;;;;;7391131;19;20139;-76
2022/03/03 10:06:51;;;;;;;18.17;11.23;;;7.30;99.90;;;;;;7392600;19;20501;-83
2022/03/03 10:09:17;;;;;;;18.57;11.30;;;7.40;99.90;;;;;;7397434;19;20141;-77
2022/03/03 10:12:06;;;;;;;18.77;10.60;;;7.70;99.90;;;;;;7393457;19;20206;-82
2022/03/03 10:14:36;;;;;;;18.20;11.37;;;7.70;99.90;;;;;;7395083;19;20644;-77
2022/03/03 10:17:05;;;;;;;15.27;10.33;;;7.70;99.90;;;;;;7393401;19;20482;-82
2022/03/03 10:19:31;;;;;;;17.73;10.80;;;7.90;99.90;;;;;;7390639;19;20652;-76
2022/03/03 10:21:57;;;;;;;20.80;11.80;;;7.90;99.90;;;;;;7393425;19;20151;-77
2022/03/03 10:24:26;;;;;;;16.43;10.47;;;7.90;99.90;;;;;;7393494;19;20598;-77
2022/03/03 10:27:01;;;;;;;19.47;11.10;;;7.90;99.90;;;;;;7391519;19;20642;-78
2022/03/03 10:29:27;;;;;;;17.13;10.20;;;7.80;99.90;;;;;;7395034;19;20151;-81
2022/03/03 10:31:55;;;;;;;16.10;9.37;;;7.90;99.90;;;;;;7392408;19;20141;-76
2022/03/03 10:34:27;;;;;;;17.67;10.53;;;7.90;99.80;;;;;;7392438;19;20127;-77
2022/03/03 10:37:04;;;;;;;17.23;10.43;;;8.20;99.20;;;;;;7392888;19;20142;-81
2022/03/03 10:39:42;;;;;;;15.57;10.20;;;8.30;99.50;;;;;;7391467;19;20138;-76
2022/03/03 10:42:23;;;;;;;14.93;9.60;;;8.60;98.80;;;;;;7393271;19;20139;-76
2022/03/03 10:45:08;;;;;;;14.50;9.73;;;8.70;98.00;;;;;;7391579;19;20164;-80
2022/03/03 10:47:34;;;;;;;20.03;10.30;;;8.70;97.90;;;;;;7388879;19;20792;-77
2022/03/03 10:50:00;;;;;;;15.47;9.53;;;8.60;97.80;;;;;;7396452;19;20127;-78
2022/03/03 10:52:35;;;;;;;14.87;9.17;;;8.60;97.70;;;;;;7391401;19;20475;-82
2022/03/03 10:55:10;;;;;;;14.00;9.30;;;8.70;97.60;;;;;;7392070;19;20164;-83
2022/03/03 10:57:51;;;;;;;15.07;9.83;;;8.80;97.50;;;;;;7391741;19;20126;-82
2022/03/03 11:00:31;;;;;;;18.33;10.30;;;8.90;97.60;;;;;;7392365;19;20132;-83
2022/03/03 11:02:59;;;;;;;15.70;9.80;;;9.00;97.50;;;;;;7391151;19;20131;-83
2022/03/03 11:05:29;;;;;;;14.93;9.30;;;9.10;97.60;;;;;;7391338;19;20519;-76
2022/03/03 11:07:57;;;;;;;15.90;10.23;;;9.10;97.50;;;;;;7389748;19;20134;-76
2022/03/03 11:10:29;;;;;;;14.37;9.27;;;9.20;97.40;;;;;;7391481;19;20138;-76
2022/03/03 11:12:56;;;;;;;15.07;9.67;;;9.50;96.80;;;;;;7395719;19;20706;-76
2022/03/03 11:15:28;;;;;;;15.00;9.90;;;9.50;96.30;;;;;;7391468;19;20159;-83
2022/03/03 11:17:55;;;;;;;13.13;9.07;;;9.50;96.10;;;;;;7392190;19;20151;-77
2022/03/03 11:20:23;;;;;;;13.33;9.23;;;9.50;96.20;;;;;;7391298;19;20145;-77
2022/03/03 11:22:57;;;;;;;14.63;9.80;;;9.60;95.60;;;;;;7392093;19;20134;-76
2022/03/03 11:25:32;;;;;;;15.00;9.27;;;9.70;95.40;;;;;;7392532;19;20131;-82
2022/03/03 11:28:07;;;;;;;13.33;9.70;;;9.70;95.60;;;;;;7391785;19;20134;-78
2022/03/03 11:30:34;;;;;;;17.43;9.37;;;9.90;94.80;;;;;;7390689;19;20533;-76
2022/03/03 11:33:27;;;;;;;14.20;9.70;;;9.90;94.50;;;;;;7391741;19;20235;-83
2022/03/03 11:36:00;;;;;;;15.90;10.27;;;9.80;94.50;;;;;;7391596;19;20135;-78
2022/03/03 11:38:42;;;;;;;17.57;9.50;;;9.70;94.70;;;;;;7389902;19;20146;-84
2022/03/03 11:41:07;;;;;;;17.53;10.47;;;9.90;94.90;;;;;;7390327;19;20627;-77
2022/03/03 11:43:49;;;;;;;15.03;10.07;;;10.30;94.50;;;;;;7392274;19;20134;-77
2022/03/03 11:46:45;;;;;;;15.43;9.90;;;10.40;93.10;;;;;;7390705;19;20214;-82
2022/03/03 11:49:15;;;;;;;16.70;10.37;;;10.40;93.10;;;;;;7392343;19;20145;-77
2022/03/03 11:51:42;;;;;;;16.17;9.50;;;10.30;93.70;;;;;;7391106;19;20134;-77
2022/03/03 11:54:12;;;;;;;16.63;10.40;;;10.50;93.30;;;;;;7391741;19;20126;-83
2022/03/03 11:57:02;;;;;;;17.50;10.50;;;10.40;93.90;;;;;;7389057;19;20435;-76
2022/03/03 11:59:41;;;;;;;14.27;9.73;;;10.60;92.70;;;;;;7390003;19;20155;-78
2022/03/03 12:02:07;;;;;;;12.93;9.00;;;10.70;93.00;;;;;;7389723;19;20150;-82
2022/03/03 12:04:34;;;;;;;14.70;9.80;;;10.60;92.70;;;;;;7389468;19;20678;-81
2022/03/03 12:07:00;;;;;;;16.20;10.13;;;10.70;92.70;;;;;;7388729;19;20135;-77
2022/03/03 12:09:40;;;;;;;14.70;10.60;;;10.70;92.80;;;;;;7390729;19;20540;-77
2022/03/03 12:12:19;;;;;;;15.93;10.57;;;10.60;93.20;;;;;;7392098;19;20134;-82
2022/03/03 12:15:00;;;;;;;17.17;10.23;;;10.80;92.80;;;;;;7391512;19;20133;-82
2022/03/03 12:17:40;;;;;;;14.93;10.47;;;10.80;92.70;;;;;;7391324;19;20142;-77
2022/03/03 12:20:27;;;;;;;14.57;9.47;;;10.70;93.10;;;;;;7390252;19;20198;-77
2022/03/03 12:23:02;;;;;;;15.23;9.97;;;10.90;92.60;;;;;;7391217;19;20169;-78
2022/03/03 12:25:47;;;;;;;16.33;9.73;;;11.20;92.00;;;;;;7388692;19;20138;-78
2022/03/03 12:28:33;;;;;;;18.50;10.23;;;11.30;91.90;;;;;;7388036;19;20126;-81
2022/03/03 12:30:59;;;;;;;18.37;11.30;;;11.40;91.70;;;;;;7390387;19;20130;-78
2022/03/03 12:33:28;;;;;;;18.47;10.63;;;11.30;91.60;;;;;;7387938;19;20561;-81
2022/03/03 12:36:04;;;;;;;15.67;10.23;;;11.40;91.50;;;;;;7384365;19;20127;-80
2022/03/03 12:38:34;;;;;;;16.90;11.40;;;11.40;91.50;;;;;;7387027;19;20151;-76
2022/03/03 12:41:00;;;;;;;16.40;10.53;;;11.50;91.40;;;;;;7388750;19;20154;-83
2022/03/03 12:43:36;;;;;;;17.57;10.47;;;11.40;91.70;;;;;;7387562;19;20141;-78
2022/03/03 12:46:02;;;;;;;18.20;11.30;;;11.40;91.10;;;;;;7386216;19;21079;-76
2022/03/03 12:48:30;;;;;;;18.47;12.17;;;11.60;91.10;;;;;;7389688;19;20134;-76
2022/03/03 12:51:08;;;;;;;18.80;11.30;;;11.60;91.10;;;;;;7389563;19;20135;-77